Manderson, Wyoming
Current Conditions -  °F | °C
As of 9:53 PM on Tuesday 21 Oct 2014 (Local Time) from KGEY Reporting Station
Clear Clear  
Wind Chill: 53°   Ceiling: Unl
Heat Index: 53°   Visibility: 10mi
Dew Point: 20°   Wind: 8mph
Humidity: 27%   Direction: 330°NNW
Pressure: 29.91"   Gusts: NA
Location:  44.27°N, 107.96°W
Report Text: KGEY 220353Z AUTO 33007KT 10SM CLR 12/M07 A2991 RMK AO2 SLP118 T01171067
Loading
Personal Weather Stations






























Interactive Weather Map
Tropical Storm Tracking
New forecast layout! Learn more

10-Day Weather Forecast

Advertisements
Track Severe Weather on mobile